sensor_id;sensor_type;location;lat;lon;timestamp;temperature;humidity
14277;DHT22;7222;57.346;12.150;2023-02-26T00:00:14;-2.50;99.90
14277;DHT22;7222;57.346;12.150;2023-02-26T00:02:43;-2.50;99.90
14277;DHT22;7222;57.346;12.150;2023-02-26T00:05:11;-2.40;99.90
14277;DHT22;7222;57.346;12.150;2023-02-26T00:07:37;-2.50;99.90
14277;DHT22;7222;57.346;12.150;2023-02-26T00:10:06;-2.40;99.90
14277;DHT22;7222;57.346;12.150;2023-02-26T00:12:34;-2.40;99.90
14277;DHT22;7222;57.346;12.150;2023-02-26T00:15:02;-2.40;99.90
14277;DHT22;7222;57.346;12.150;2023-02-26T00:17:38;-2.30;99.90
14277;DHT22;7222;57.346;12.150;2023-02-26T00:20:11;-2.30;99.90
14277;DHT22;7222;57.346;12.150;2023-02-26T00:22:39;-2.40;99.90
14277;DHT22;7222;57.346;12.150;2023-02-26T00:25:06;-2.40;99.90
14277;DHT22;7222;57.346;12.150;2023-02-26T00:27:34;-2.30;99.90
14277;DHT22;7222;57.346;12.150;2023-02-26T00:30:01;-2.40;99.90
14277;DHT22;7222;57.346;12.150;2023-02-26T00:32:29;-2.50;99.90
14277;DHT22;7222;57.346;12.150;2023-02-26T00:34:57;-2.40;99.90
14277;DHT22;7222;57.346;12.150;2023-02-26T00:37:35;-2.50;99.90
14277;DHT22;7222;57.346;12.150;2023-02-26T00:40:13;-2.50;99.90
14277;DHT22;7222;57.346;12.150;2023-02-26T00:42:42;-2.50;99.90
14277;DHT22;7222;57.346;12.150;2023-02-26T00:45:11;-2.60;99.90
14277;DHT22;7222;57.346;12.150;2023-02-26T00:47:44;-2.40;99.90
14277;DHT22;7222;57.346;12.150;2023-02-26T00:50:16;-2.40;99.90
14277;DHT22;7222;57.346;12.150;2023-02-26T00:52:52;-2.50;99.90
14277;DHT22;7222;57.346;12.150;2023-02-26T00:55:24;-2.50;99.90
14277;DHT22;7222;57.346;12.150;2023-02-26T00:57:51;-2.50;99.90
14277;DHT22;7222;57.346;12.150;2023-02-26T01:00:19;-2.50;99.90
14277;DHT22;7222;57.346;12.150;2023-02-26T01:02:47;-2.50;99.90
14277;DHT22;7222;57.346;12.150;2023-02-26T01:05:15;-2.50;99.90
14277;DHT22;7222;57.346;12.150;2023-02-26T01:07:46;-2.60;99.90
14277;DHT22;7222;57.346;12.150;2023-02-26T01:10:19;-2.60;99.90
14277;DHT22;7222;57.346;12.150;2023-02-26T01:12:47;-2.60;99.90
14277;DHT22;7222;57.346;12.150;2023-02-26T01:15:15;-2.60;99.90
14277;DHT22;7222;57.346;12.150;2023-02-26T01:17:46;-2.70;99.90
14277;DHT22;7222;57.346;12.150;2023-02-26T01:20:18;-2.70;99.90
14277;DHT22;7222;57.346;12.150;2023-02-26T01:22:51;-2.60;99.90
14277;DHT22;7222;57.346;12.150;2023-02-26T01:25:24;-2.50;99.90
14277;DHT22;7222;57.346;12.150;2023-02-26T01:27:52;-2.50;99.90
14277;DHT22;7222;57.346;12.150;2023-02-26T01:30:22;-2.50;99.90
14277;DHT22;7222;57.346;12.150;2023-02-26T01:32:53;-2.50;99.90
14277;DHT22;7222;57.346;12.150;2023-02-26T01:35:38;-2.50;99.90
14277;DHT22;7222;57.346;12.150;2023-02-26T01:38:15;-2.60;99.90
14277;DHT22;7222;57.346;12.150;2023-02-26T01:41:14;-2.50;99.90
14277;DHT22;7222;57.346;12.150;2023-02-26T01:43:50;-2.50;99.90
14277;DHT22;7222;57.346;12.150;2023-02-26T01:46:27;-2.50;99.90
14277;DHT22;7222;57.346;12.150;2023-02-26T01:48:58;-2.70;99.90
14277;DHT22;7222;57.346;12.150;2023-02-26T01:51:44;-2.80;99.90
14277;DHT22;7222;57.346;12.150;2023-02-26T01:54:11;-2.90;99.90
14277;DHT22;7222;57.346;12.150;2023-02-26T01:56:40;-2.80;99.90
14277;DHT22;7222;57.346;12.150;2023-02-26T01:59:10;-2.90;99.90
14277;DHT22;7222;57.346;12.150;2023-02-26T02:01:40;-2.90;99.90
14277;DHT22;7222;57.346;12.150;2023-02-26T02:04:10;-2.90;99.90
14277;DHT22;7222;57.346;12.150;2023-02-26T02:06:37;-3.10;99.90
14277;DHT22;7222;57.346;12.150;2023-02-26T02:09:05;-3.10;99.90
14277;DHT22;7222;57.346;12.150;2023-02-26T02:11:32;-3.10;99.90
14277;DHT22;7222;57.346;12.150;2023-02-26T02:14:09;-3.10;99.90
14277;DHT22;7222;57.346;12.150;2023-02-26T02:16:41;-3.10;99.90
14277;DHT22;7222;57.346;12.150;2023-02-26T02:22:21;-3.10;99.90
14277;DHT22;7222;57.346;12.150;2023-02-26T02:25:11;-3.20;99.90
14277;DHT22;7222;57.346;12.150;2023-02-26T02:27:46;-3.20;99.90
14277;DHT22;7222;57.346;12.150;2023-02-26T02:30:26;-3.10;99.90
14277;DHT22;7222;57.346;12.150;2023-02-26T02:33:01;-3.20;99.90
14277;DHT22;7222;57.346;12.150;2023-02-26T02:35:33;-3.10;99.90
14277;DHT22;7222;57.346;12.150;2023-02-26T02:38:04;-3.20;99.90
14277;DHT22;7222;57.346;12.150;2023-02-26T02:40:36;-3.20;99.90
14277;DHT22;7222;57.346;12.150;2023-02-26T02:43:08;-3.20;99.90
14277;DHT22;7222;57.346;12.150;2023-02-26T02:45:40;-3.20;99.90
14277;DHT22;7222;57.346;12.150;2023-02-26T02:48:13;-3.20;99.90
14277;DHT22;7222;57.346;12.150;2023-02-26T02:50:45;-3.20;99.90
14277;DHT22;7222;57.346;12.150;2023-02-26T02:53:16;-3.20;99.90
14277;DHT22;7222;57.346;12.150;2023-02-26T02:55:47;-3.30;99.90
14277;DHT22;7222;57.346;12.150;2023-02-26T02:58:17;-3.30;99.90
14277;DHT22;7222;57.346;12.150;2023-02-26T03:00:49;-3.20;99.90
14277;DHT22;7222;57.346;12.150;2023-02-26T03:03:22;-3.30;99.90
14277;DHT22;7222;57.346;12.150;2023-02-26T03:05:51;-3.30;99.90
14277;DHT22;7222;57.346;12.150;2023-02-26T03:08:21;-3.30;99.90
14277;DHT22;7222;57.346;12.150;2023-02-26T03:10:49;-3.30;99.90
14277;DHT22;7222;57.346;12.150;2023-02-26T03:13:20;-3.20;99.90
14277;DHT22;7222;57.346;12.150;2023-02-26T03:15:56;-3.20;99.90
14277;DHT22;7222;57.346;12.150;2023-02-26T03:18:35;-3.30;99.90
14277;DHT22;7222;57.346;12.150;2023-02-26T03:21:10;-3.40;99.90
14277;DHT22;7222;57.346;12.150;2023-02-26T03:23:44;-3.40;99.90
14277;DHT22;7222;57.346;12.150;2023-02-26T03:26:14;-3.40;99.90
14277;DHT22;7222;57.346;12.150;2023-02-26T03:28:47;-3.40;99.90
14277;DHT22;7222;57.346;12.150;2023-02-26T03:31:20;-3.40;99.90
14277;DHT22;7222;57.346;12.150;2023-02-26T03:33:55;-3.50;99.90
14277;DHT22;7222;57.346;12.150;2023-02-26T03:36:26;-3.50;99.90
14277;DHT22;7222;57.346;12.150;2023-02-26T03:38:58;-3.40;99.90
14277;DHT22;7222;57.346;12.150;2023-02-26T03:41:29;-3.40;99.90
14277;DHT22;7222;57.346;12.150;2023-02-26T03:44:00;-3.50;99.90
14277;DHT22;7222;57.346;12.150;2023-02-26T03:46:32;-3.50;99.90
14277;DHT22;7222;57.346;12.150;2023-02-26T03:49:06;-3.50;99.90
14277;DHT22;7222;57.346;12.150;2023-02-26T03:51:35;-3.50;99.90
14277;DHT22;7222;57.346;12.150;2023-02-26T03:54:06;-3.50;99.90
14277;DHT22;7222;57.346;12.150;2023-02-26T03:56:36;-3.40;99.90
14277;DHT22;7222;57.346;12.150;2023-02-26T03:59:04;-3.40;99.90
14277;DHT22;7222;57.346;12.150;2023-02-26T04:01:38;-3.50;99.90
14277;DHT22;7222;57.346;12.150;2023-02-26T04:04:11;-3.60;99.90
14277;DHT22;7222;57.346;12.150;2023-02-26T04:06:38;-3.50;99.90
14277;DHT22;7222;57.346;12.150;2023-02-26T04:09:05;-3.60;99.90
14277;DHT22;7222;57.346;12.150;2023-02-26T04:11:33;-3.50;99.90
14277;DHT22;7222;57.346;12.150;2023-02-26T04:14:01;-3.50;99.90
14277;DHT22;7222;57.346;12.150;2023-02-26T04:16:28;-3.50;99.90
14277;DHT22;7222;57.346;12.150;2023-02-26T04:18:55;-3.40;99.90
14277;DHT22;7222;57.346;12.150;2023-02-26T04:21:24;-3.50;99.90
14277;DHT22;7222;57.346;12.150;2023-02-26T04:23:51;-3.50;99.90
14277;DHT22;7222;57.346;12.150;2023-02-26T04:26:17;-3.50;99.90
14277;DHT22;7222;57.346;12.150;2023-02-26T04:28:45;-3.40;99.90
14277;DHT22;7222;57.346;12.150;2023-02-26T04:31:12;-3.40;99.90
14277;DHT22;7222;57.346;12.150;2023-02-26T04:33:39;-3.60;99.90
14277;DHT22;7222;57.346;12.150;2023-02-26T04:36:07;-3.60;99.90
14277;DHT22;7222;57.346;12.150;2023-02-26T04:38:36;-3.50;99.90
14277;DHT22;7222;57.346;12.150;2023-02-26T04:41:04;-3.60;99.90
14277;DHT22;7222;57.346;12.150;2023-02-26T04:43:31;-3.50;99.90
14277;DHT22;7222;57.346;12.150;2023-02-26T04:45:58;-3.50;99.90
14277;DHT22;7222;57.346;12.150;2023-02-26T04:48:25;-3.50;99.90
14277;DHT22;7222;57.346;12.150;2023-02-26T04:50:52;-3.40;99.90
14277;DHT22;7222;57.346;12.150;2023-02-26T04:53:18;-3.50;99.90
14277;DHT22;7222;57.346;12.150;2023-02-26T04:55:48;-3.40;99.90
14277;DHT22;7222;57.346;12.150;2023-02-26T04:58:15;-3.40;99.90
14277;DHT22;7222;57.346;12.150;2023-02-26T05:00:42;-3.40;99.90
14277;DHT22;7222;57.346;12.150;2023-02-26T05:03:09;-3.30;99.90
14277;DHT22;7222;57.346;12.150;2023-02-26T05:05:38;-3.30;99.90
14277;DHT22;7222;57.346;12.150;2023-02-26T05:08:04;-3.30;99.90
14277;DHT22;7222;57.346;12.150;2023-02-26T05:10:31;-3.30;99.90
14277;DHT22;7222;57.346;12.150;2023-02-26T05:13:00;-3.30;99.90
14277;DHT22;7222;57.346;12.150;2023-02-26T05:15:27;-3.30;99.90
14277;DHT22;7222;57.346;12.150;2023-02-26T05:17:54;-3.30;99.90
14277;DHT22;7222;57.346;12.150;2023-02-26T05:20:21;-3.40;99.90
14277;DHT22;7222;57.346;12.150;2023-02-26T05:22:48;-3.50;99.90
14277;DHT22;7222;57.346;12.150;2023-02-26T05:25:16;-3.50;99.90
14277;DHT22;7222;57.346;12.150;2023-02-26T05:27:43;-3.60;99.90
14277;DHT22;7222;57.346;12.150;2023-02-26T05:30:14;-3.60;99.90
14277;DHT22;7222;57.346;12.150;2023-02-26T05:32:41;-3.60;99.90
14277;DHT22;7222;57.346;12.150;2023-02-26T05:35:09;-3.70;99.90
14277;DHT22;7222;57.346;12.150;2023-02-26T05:37:36;-3.60;99.90
14277;DHT22;7222;57.346;12.150;2023-02-26T05:40:04;-3.70;99.90
14277;DHT22;7222;57.346;12.150;2023-02-26T05:42:33;-3.80;99.90
14277;DHT22;7222;57.346;12.150;2023-02-26T05:45:00;-3.70;99.90
14277;DHT22;7222;57.346;12.150;2023-02-26T05:47:30;-3.60;99.90
14277;DHT22;7222;57.346;12.150;2023-02-26T05:49:57;-3.60;99.90
14277;DHT22;7222;57.346;12.150;2023-02-26T05:52:24;-3.40;99.90
14277;DHT22;7222;57.346;12.150;2023-02-26T05:54:51;-3.50;99.90
14277;DHT22;7222;57.346;12.150;2023-02-26T05:57:17;-3.60;99.90
14277;DHT22;7222;57.346;12.150;2023-02-26T05:59:44;-3.60;99.90
14277;DHT22;7222;57.346;12.150;2023-02-26T06:02:11;-3.70;99.90
14277;DHT22;7222;57.346;12.150;2023-02-26T06:04:39;-3.70;99.90
14277;DHT22;7222;57.346;12.150;2023-02-26T06:07:06;-3.60;99.90
14277;DHT22;7222;57.346;12.150;2023-02-26T06:09:33;-3.60;99.90
14277;DHT22;7222;57.346;12.150;2023-02-26T06:12:01;-3.60;99.90
14277;DHT22;7222;57.346;12.150;2023-02-26T06:14:28;-3.60;99.90
14277;DHT22;7222;57.346;12.150;2023-02-26T06:16:55;-3.60;99.90
14277;DHT22;7222;57.346;12.150;2023-02-26T06:19:22;-3.50;99.90
14277;DHT22;7222;57.346;12.150;2023-02-26T06:21:50;-3.40;99.90
14277;DHT22;7222;57.346;12.150;2023-02-26T06:24:17;-3.40;99.90
14277;DHT22;7222;57.346;12.150;2023-02-26T06:26:44;-3.40;99.90
14277;DHT22;7222;57.346;12.150;2023-02-26T06:29:11;-3.40;99.90
14277;DHT22;7222;57.346;12.150;2023-02-26T06:31:38;-3.40;99.90
14277;DHT22;7222;57.346;12.150;2023-02-26T06:34:05;-3.40;99.90
14277;DHT22;7222;57.346;12.150;2023-02-26T06:36:31;-3.40;99.90
14277;DHT22;7222;57.346;12.150;2023-02-26T06:39:00;-3.40;99.90
14277;DHT22;7222;57.346;12.150;2023-02-26T06:41:27;-3.40;99.90
14277;DHT22;7222;57.346;12.150;2023-02-26T06:43:53;-3.50;99.90
14277;DHT22;7222;57.346;12.150;2023-02-26T06:46:20;-3.40;99.90
14277;DHT22;7222;57.346;12.150;2023-02-26T06:48:47;-3.50;99.90
14277;DHT22;7222;57.346;12.150;2023-02-26T06:51:14;-3.40;99.90
14277;DHT22;7222;57.346;12.150;2023-02-26T06:53:41;-3.30;99.90
14277;DHT22;7222;57.346;12.150;2023-02-26T06:56:09;-3.30;99.90
14277;DHT22;7222;57.346;12.150;2023-02-26T06:58:36;-3.40;99.90
14277;DHT22;7222;57.346;12.150;2023-02-26T07:01:03;-3.30;99.90
14277;DHT22;7222;57.346;12.150;2023-02-26T07:03:30;-3.30;99.90
14277;DHT22;7222;57.346;12.150;2023-02-26T07:05:58;-3.30;99.90
14277;DHT22;7222;57.346;12.150;2023-02-26T07:08:24;-3.10;99.90
14277;DHT22;7222;57.346;12.150;2023-02-26T07:10:51;-3.20;99.90
14277;DHT22;7222;57.346;12.150;2023-02-26T07:13:20;-3.20;99.90
14277;DHT22;7222;57.346;12.150;2023-02-26T07:15:46;-3.10;99.90
14277;DHT22;7222;57.346;12.150;2023-02-26T07:18:13;-3.00;99.90
14277;DHT22;7222;57.346;12.150;2023-02-26T07:20:40;-3.00;99.90
14277;DHT22;7222;57.346;12.150;2023-02-26T07:23:07;-2.90;99.90
14277;DHT22;7222;57.346;12.150;2023-02-26T07:25:35;-2.90;99.90
14277;DHT22;7222;57.346;12.150;2023-02-26T07:28:02;-3.00;99.90
14277;DHT22;7222;57.346;12.150;2023-02-26T07:30:30;-3.00;99.90
14277;DHT22;7222;57.346;12.150;2023-02-26T07:32:57;-2.80;99.90
14277;DHT22;7222;57.346;12.150;2023-02-26T07:35:24;-2.90;99.90
14277;DHT22;7222;57.346;12.150;2023-02-26T07:37:51;-2.90;99.90
14277;DHT22;7222;57.346;12.150;2023-02-26T07:40:18;-2.80;99.90
14277;DHT22;7222;57.346;12.150;2023-02-26T07:42:45;-2.90;99.90
14277;DHT22;7222;57.346;12.150;2023-02-26T07:45:12;-2.90;99.90
14277;DHT22;7222;57.346;12.150;2023-02-26T07:47:44;-2.90;99.90
14277;DHT22;7222;57.346;12.150;2023-02-26T07:50:11;-2.90;99.90
14277;DHT22;7222;57.346;12.150;2023-02-26T07:52:38;-2.60;99.90
14277;DHT22;7222;57.346;12.150;2023-02-26T07:55:05;-2.50;99.90
14277;DHT22;7222;57.346;12.150;2023-02-26T07:57:32;-2.60;99.90
14277;DHT22;7222;57.346;12.150;2023-02-26T07:59:59;-2.50;99.90
14277;DHT22;7222;57.346;12.150;2023-02-26T08:02:26;-2.50;99.90
14277;DHT22;7222;57.346;12.150;2023-02-26T08:04:55;-2.20;99.90
14277;DHT22;7222;57.346;12.150;2023-02-26T08:07:22;-2.30;99.90
14277;DHT22;7222;57.346;12.150;2023-02-26T08:09:50;-2.10;99.90
14277;DHT22;7222;57.346;12.150;2023-02-26T08:12:16;-2.10;99.90
14277;DHT22;7222;57.346;12.150;2023-02-26T08:14:43;-2.10;99.90
14277;DHT22;7222;57.346;12.150;2023-02-26T08:17:11;-2.00;99.90
14277;DHT22;7222;57.346;12.150;2023-02-26T08:19:39;-2.20;99.90
14277;DHT22;7222;57.346;12.150;2023-02-26T08:22:07;-2.10;99.90
14277;DHT22;7222;57.346;12.150;2023-02-26T08:24:34;-1.80;99.90
14277;DHT22;7222;57.346;12.150;2023-02-26T08:27:01;-1.90;99.90
14277;DHT22;7222;57.346;12.150;2023-02-26T08:29:29;-1.70;99.90
14277;DHT22;7222;57.346;12.150;2023-02-26T08:31:56;-1.60;99.90
14277;DHT22;7222;57.346;12.150;2023-02-26T08:34:22;-1.50;99.90
14277;DHT22;7222;57.346;12.150;2023-02-26T08:36:49;-1.40;99.90
14277;DHT22;7222;57.346;12.150;2023-02-26T08:39:18;-1.40;99.90
14277;DHT22;7222;57.346;12.150;2023-02-26T08:41:45;-1.00;99.90
14277;DHT22;7222;57.346;12.150;2023-02-26T08:44:12;-1.10;99.90
14277;DHT22;7222;57.346;12.150;2023-02-26T08:46:38;-0.90;99.90
14277;DHT22;7222;57.346;12.150;2023-02-26T08:49:06;-1.10;99.90
14277;DHT22;7222;57.346;12.150;2023-02-26T08:51:33;-1.10;99.90
14277;DHT22;7222;57.346;12.150;2023-02-26T08:53:59;-1.00;99.90
14277;DHT22;7222;57.346;12.150;2023-02-26T08:56:28;-0.80;99.90
14277;DHT22;7222;57.346;12.150;2023-02-26T08:58:56;-0.70;99.90
14277;DHT22;7222;57.346;12.150;2023-02-26T09:01:23;-0.70;99.90
14277;DHT22;7222;57.346;12.150;2023-02-26T09:03:49;-0.40;99.90
14277;DHT22;7222;57.346;12.150;2023-02-26T09:06:16;-0.20;99.90
14277;DHT22;7222;57.346;12.150;2023-02-26T09:08:43;-0.10;99.90
14277;DHT22;7222;57.346;12.150;2023-02-26T09:11:10;0.00;99.90
14277;DHT22;7222;57.346;12.150;2023-02-26T09:13:38;0.20;99.90
14277;DHT22;7222;57.346;12.150;2023-02-26T09:16:06;0.40;99.90
14277;DHT22;7222;57.346;12.150;2023-02-26T09:18:33;0.30;99.90
14277;DHT22;7222;57.346;12.150;2023-02-26T09:21:00;0.60;99.90
14277;DHT22;7222;57.346;12.150;2023-02-26T09:23:28;0.50;99.90
14277;DHT22;7222;57.346;12.150;2023-02-26T09:25:56;1.00;99.90
14277;DHT22;7222;57.346;12.150;2023-02-26T09:28:24;1.20;99.90
14277;DHT22;7222;57.346;12.150;2023-02-26T09:30:53;1.10;99.90
14277;DHT22;7222;57.346;12.150;2023-02-26T09:33:21;1.40;99.90
14277;DHT22;7222;57.346;12.150;2023-02-26T09:35:49;1.80;99.90
14277;DHT22;7222;57.346;12.150;2023-02-26T09:38:16;2.10;99.90
14277;DHT22;7222;57.346;12.150;2023-02-26T09:40:46;2.20;99.90
14277;DHT22;7222;57.346;12.150;2023-02-26T09:43:42;2.10;99.90
14277;DHT22;7222;57.346;12.150;2023-02-26T09:46:23;2.90;99.90
14277;DHT22;7222;57.346;12.150;2023-02-26T09:48:59;2.90;99.90
14277;DHT22;7222;57.346;12.150;2023-02-26T09:51:29;2.90;99.90
14277;DHT22;7222;57.346;12.150;2023-02-26T09:53:57;2.80;99.90
14277;DHT22;7222;57.346;12.150;2023-02-26T09:56:26;2.90;99.90
14277;DHT22;7222;57.346;12.150;2023-02-26T09:58:55;3.10;99.90
14277;DHT22;7222;57.346;12.150;2023-02-26T10:01:29;3.60;99.90
14277;DHT22;7222;57.346;12.150;2023-02-26T10:04:05;3.80;99.90
14277;DHT22;7222;57.346;12.150;2023-02-26T10:06:43;3.80;99.90
14277;DHT22;7222;57.346;12.150;2023-02-26T10:09:24;4.30;99.90
14277;DHT22;7222;57.346;12.150;2023-02-26T10:11:59;4.30;99.90
14277;DHT22;7222;57.346;12.150;2023-02-26T10:14:31;4.40;99.90
14277;DHT22;7222;57.346;12.150;2023-02-26T10:17:06;4.30;99.90
14277;DHT22;7222;57.346;12.150;2023-02-26T10:19:37;4.40;99.90
14277;DHT22;7222;57.346;12.150;2023-02-26T10:22:15;5.10;99.90
14277;DHT22;7222;57.346;12.150;2023-02-26T10:24:47;5.30;99.90
14277;DHT22;7222;57.346;12.150;2023-02-26T10:27:19;5.10;99.90
14277;DHT22;7222;57.346;12.150;2023-02-26T10:29:52;5.50;99.90
14277;DHT22;7222;57.346;12.150;2023-02-26T10:32:32;6.10;99.90
14277;DHT22;7222;57.346;12.150;2023-02-26T10:35:03;6.60;99.90
14277;DHT22;7222;57.346;12.150;2023-02-26T10:37:38;6.60;99.90
14277;DHT22;7222;57.346;12.150;2023-02-26T10:40:13;6.80;99.90
14277;DHT22;7222;57.346;12.150;2023-02-26T10:42:45;6.80;99.90
14277;DHT22;7222;57.346;12.150;2023-02-26T10:45:24;7.80;99.90
14277;DHT22;7222;57.346;12.150;2023-02-26T10:48:03;8.00;99.90
14277;DHT22;7222;57.346;12.150;2023-02-26T10:50:35;8.80;99.90
14277;DHT22;7222;57.346;12.150;2023-02-26T10:53:03;9.70;99.90
14277;DHT22;7222;57.346;12.150;2023-02-26T10:55:38;10.40;99.90
14277;DHT22;7222;57.346;12.150;2023-02-26T10:58:11;11.80;99.90
14277;DHT22;7222;57.346;12.150;2023-02-26T11:00:40;12.90;99.90
14277;DHT22;7222;57.346;12.150;2023-02-26T11:03:14;12.50;99.90
14277;DHT22;7222;57.346;12.150;2023-02-26T11:05:41;12.70;99.90
14277;DHT22;7222;57.346;12.150;2023-02-26T11:08:12;12.80;69.70
14277;DHT22;7222;57.346;12.150;2023-02-26T11:10:46;13.90;99.90
14277;DHT22;7222;57.346;12.150;2023-02-26T11:13:13;14.60;35.50
14277;DHT22;7222;57.346;12.150;2023-02-26T11:15:41;14.00;99.90
14277;DHT22;7222;57.346;12.150;2023-02-26T11:18:13;13.70;1.00
14277;DHT22;7222;57.346;12.150;2023-02-26T11:20:44;12.90;9.80
14277;DHT22;7222;57.346;12.150;2023-02-26T11:23:15;12.70;99.90
14277;DHT22;7222;57.346;12.150;2023-02-26T11:25:43;12.30;38.20
14277;DHT22;7222;57.346;12.150;2023-02-26T11:28:20;14.10;87.20
14277;DHT22;7222;57.346;12.150;2023-02-26T11:30:49;14.70;1.00
14277;DHT22;7222;57.346;12.150;2023-02-26T11:33:26;14.50;99.90
14277;DHT22;7222;57.346;12.150;2023-02-26T11:35:56;15.60;99.90
14277;DHT22;7222;57.346;12.150;2023-02-26T11:38:26;15.40;1.00
14277;DHT22;7222;57.346;12.150;2023-02-26T11:40:56;14.90;1.00
14277;DHT22;7222;57.346;12.150;2023-02-26T11:43:25;14.90;99.90
14277;DHT22;7222;57.346;12.150;2023-02-26T11:45:54;13.90;99.90
14277;DHT22;7222;57.346;12.150;2023-02-26T11:48:28;14.30;1.00
14277;DHT22;7222;57.346;12.150;2023-02-26T11:50:59;12.90;99.90
14277;DHT22;7222;57.346;12.150;2023-02-26T11:53:31;11.30;99.90
14277;DHT22;7222;57.346;12.150;2023-02-26T11:56:00;10.50;99.90
14277;DHT22;7222;57.346;12.150;2023-02-26T11:58:31;10.20;99.90
14277;DHT22;7222;57.346;12.150;2023-02-26T12:01:00;9.90;1.00
14277;DHT22;7222;57.346;12.150;2023-02-26T12:03:33;9.60;99.90
14277;DHT22;7222;57.346;12.150;2023-02-26T12:06:01;9.60;1.00
14277;DHT22;7222;57.346;12.150;2023-02-26T12:08:30;9.70;99.90
14277;DHT22;7222;57.346;12.150;2023-02-26T12:14:25;9.30;99.90
14277;DHT22;7222;57.346;12.150;2023-02-26T12:17:05;9.10;1.00
14277;DHT22;7222;57.346;12.150;2023-02-26T12:19:41;9.10;1.00
14277;DHT22;7222;57.346;12.150;2023-02-26T12:22:39;9.00;1.00
14277;DHT22;7222;57.346;12.150;2023-02-26T12:25:20;8.90;99.90
14277;DHT22;7222;57.346;12.150;2023-02-26T12:28:05;8.60;1.00
14277;DHT22;7222;57.346;12.150;2023-02-26T12:30:52;8.60;99.90
14277;DHT22;7222;57.346;12.150;2023-02-26T12:33:32;8.60;99.90
14277;DHT22;7222;57.346;12.150;2023-02-26T12:36:23;8.70;99.90
14277;DHT22;7222;57.346;12.150;2023-02-26T12:39:03;9.00;99.90
14277;DHT22;7222;57.346;12.150;2023-02-26T12:41:47;9.00;99.90
14277;DHT22;7222;57.346;12.150;2023-02-26T12:44:26;8.60;99.90
14277;DHT22;7222;57.346;12.150;2023-02-26T12:50:00;9.10;99.90
14277;DHT22;7222;57.346;12.150;2023-02-26T12:52:53;8.80;1.00
14277;DHT22;7222;57.346;12.150;2023-02-26T12:55:29;9.20;99.90
14277;DHT22;7222;57.346;12.150;2023-02-26T12:58:25;9.30;99.90
14277;DHT22;7222;57.346;12.150;2023-02-26T13:01:10;9.20;91.40
14277;DHT22;7222;57.346;12.150;2023-02-26T13:04:06;9.00;1.00
14277;DHT22;7222;57.346;12.150;2023-02-26T13:06:49;8.80;99.90
14277;DHT22;7222;57.346;12.150;2023-02-26T13:09:31;8.80;99.90
14277;DHT22;7222;57.346;12.150;2023-02-26T13:12:16;9.00;1.00
14277;DHT22;7222;57.346;12.150;2023-02-26T13:14:51;8.80;1.00
14277;DHT22;7222;57.346;12.150;2023-02-26T13:17:26;8.60;99.90
14277;DHT22;7222;57.346;12.150;2023-02-26T13:19:56;8.70;99.90
14277;DHT22;7222;57.346;12.150;2023-02-26T13:22:28;8.60;1.00
14277;DHT22;7222;57.346;12.150;2023-02-26T13:25:01;8.50;1.00
14277;DHT22;7222;57.346;12.150;2023-02-26T13:27:33;8.60;99.90
14277;DHT22;7222;57.346;12.150;2023-02-26T13:30:15;8.70;1.00
14277;DHT22;7222;57.346;12.150;2023-02-26T13:32:44;8.70;99.90
14277;DHT22;7222;57.346;12.150;2023-02-26T13:35:21;8.80;99.90
14277;DHT22;7222;57.346;12.150;2023-02-26T13:37:52;9.00;99.90
14277;DHT22;7222;57.346;12.150;2023-02-26T13:40:42;8.80;77.60
14277;DHT22;7222;57.346;12.150;2023-02-26T13:43:20;8.70;99.90
14277;DHT22;7222;57.346;12.150;2023-02-26T13:45:58;9.10;99.90
14277;DHT22;7222;57.346;12.150;2023-02-26T13:48:36;9.60;1.00
14277;DHT22;7222;57.346;12.150;2023-02-26T13:51:10;10.90;99.90
14277;DHT22;7222;57.346;12.150;2023-02-26T13:53:52;12.00;99.90
14277;DHT22;7222;57.346;12.150;2023-02-26T13:56:54;13.70;99.90
14277;DHT22;7222;57.346;12.150;2023-02-26T13:59:37;13.50;99.90
14277;DHT22;7222;57.346;12.150;2023-02-26T14:02:44;13.40;99.90
14277;DHT22;7222;57.346;12.150;2023-02-26T14:05:50;13.70;99.90
14277;DHT22;7222;57.346;12.150;2023-02-26T14:11:23;13.80;1.00
14277;DHT22;7222;57.346;12.150;2023-02-26T14:14:15;14.50;1.00
14277;DHT22;7222;57.346;12.150;2023-02-26T14:16:44;14.80;1.00
14277;DHT22;7222;57.346;12.150;2023-02-26T14:19:21;13.70;1.00
14277;DHT22;7222;57.346;12.150;2023-02-26T14:21:50;14.20;97.00
14277;DHT22;7222;57.346;12.150;2023-02-26T14:24:21;14.90;1.00
14277;DHT22;7222;57.346;12.150;2023-02-26T14:26:50;15.50;1.00
14277;DHT22;7222;57.346;12.150;2023-02-26T14:29:29;16.20;1.00
14277;DHT22;7222;57.346;12.150;2023-02-26T14:32:12;16.90;1.00
14277;DHT22;7222;57.346;12.150;2023-02-26T14:34:48;16.30;1.00
14277;DHT22;7222;57.346;12.150;2023-02-26T14:37:19;17.00;1.00
14277;DHT22;7222;57.346;12.150;2023-02-26T14:39:49;15.10;1.00
14277;DHT22;7222;57.346;12.150;2023-02-26T14:42:22;14.10;99.90
14277;DHT22;7222;57.346;12.150;2023-02-26T14:44:58;12.70;1.00
14277;DHT22;7222;57.346;12.150;2023-02-26T14:47:29;11.60;99.90
14277;DHT22;7222;57.346;12.150;2023-02-26T14:49:57;10.90;1.00
14277;DHT22;7222;57.346;12.150;2023-02-26T14:52:41;11.10;1.00
14277;DHT22;7222;57.346;12.150;2023-02-26T14:55:21;11.10;99.90
14277;DHT22;7222;57.346;12.150;2023-02-26T14:57:56;10.60;1.00
14277;DHT22;7222;57.346;12.150;2023-02-26T15:00:36;10.00;1.00
14277;DHT22;7222;57.346;12.150;2023-02-26T15:03:25;9.70;92.70
14277;DHT22;7222;57.346;12.150;2023-02-26T15:06:05;9.30;1.00
14277;DHT22;7222;57.346;12.150;2023-02-26T15:08:54;9.20;99.90
14277;DHT22;7222;57.346;12.150;2023-02-26T15:11:33;10.00;99.90
14277;DHT22;7222;57.346;12.150;2023-02-26T15:14:18;9.60;99.90
14277;DHT22;7222;57.346;12.150;2023-02-26T15:16:58;9.00;1.00
14277;DHT22;7222;57.346;12.150;2023-02-26T15:19:38;8.80;99.90
14277;DHT22;7222;57.346;12.150;2023-02-26T15:22:23;8.60;1.00
14277;DHT22;7222;57.346;12.150;2023-02-26T15:24:51;8.40;1.00
14277;DHT22;7222;57.346;12.150;2023-02-26T15:27:19;8.20;1.00
14277;DHT22;7222;57.346;12.150;2023-02-26T15:29:47;8.00;99.90
14277;DHT22;7222;57.346;12.150;2023-02-26T15:32:24;8.10;99.90
14277;DHT22;7222;57.346;12.150;2023-02-26T15:34:57;8.00;1.00
14277;DHT22;7222;57.346;12.150;2023-02-26T15:37:26;7.90;1.00
14277;DHT22;7222;57.346;12.150;2023-02-26T15:39:55;8.00;1.00
14277;DHT22;7222;57.346;12.150;2023-02-26T15:42:28;8.10;1.00
14277;DHT22;7222;57.346;12.150;2023-02-26T15:44:59;7.70;1.00
14277;DHT22;7222;57.346;12.150;2023-02-26T15:47:29;7.50;99.90
14277;DHT22;7222;57.346;12.150;2023-02-26T15:49:56;7.50;99.90
14277;DHT22;7222;57.346;12.150;2023-02-26T15:52:26;7.50;1.00
14277;DHT22;7222;57.346;12.150;2023-02-26T15:54:55;7.40;1.00
14277;DHT22;7222;57.346;12.150;2023-02-26T15:57:23;7.10;1.00
14277;DHT22;7222;57.346;12.150;2023-02-26T15:59:53;6.80;1.00
14277;DHT22;7222;57.346;12.150;2023-02-26T16:02:23;6.70;99.90
14277;DHT22;7222;57.346;12.150;2023-02-26T16:04:54;6.60;99.90
14277;DHT22;7222;57.346;12.150;2023-02-26T16:07:21;6.40;1.00
14277;DHT22;7222;57.346;12.150;2023-02-26T16:09:50;6.20;78.80
14277;DHT22;7222;57.346;12.150;2023-02-26T16:12:21;6.20;56.00
14277;DHT22;7222;57.346;12.150;2023-02-26T16:14:51;6.10;99.90
14277;DHT22;7222;57.346;12.150;2023-02-26T16:17:24;6.00;1.00